Terminal Aerodrome Forecast
Issued by NWS Blacksburg, VA

Current Version | Previous Version | Text Only | Print | Product List | Glossary Off
Versions: 1 2 3 4 5 6 7 8 9 10 11 12 13 14 15

000
FTUS41 KRNK 261725
TAFBLF
TAF
KBLF 261725Z 2618/2718 25009G16KT P6SM VCTS BKN040CB OVC080
     FM270200 25005KT 4SM BR SCT015 OVC050
     FM271300 21004KT P6SM SCT040 BKN100
     FM271700 00000KT P6SM OVC040=

USA.gov is the U.S. government's official web portal to all federal, state and local government web resources and services.